Time,TemperatureF,DewpointF,PressureIn,WindDirection,WindDirectionDegrees,WindSpeedMPH,WindSpeedGustMPH,Humidity,HourlyPrecipIn,Conditions,Clouds,dailyrainin,SoftwareType,DateUTC
2013-07-18 00:01:00,65.0,46.0,-100.00,NNW,337,1.0,2.0,50,-99.99,,,-99.99,,2013-07-18 06:01:00,
2013-07-18 00:22:00,63.0,45.0,-100.00,SE,124,1.0,3.0,51,-99.99,,,-99.99,,2013-07-18 06:22:00,
2013-07-18 00:32:00,63.0,45.0,-100.00,SE,124,1.0,3.0,51,-99.99,,,-99.99,,2013-07-18 06:32:00,
2013-07-18 00:43:00,63.0,46.0,-100.00,NNE,12,1.0,4.0,52,-99.99,,,-99.99,,2013-07-18 06:43:00,
2013-07-18 00:52:00,63.0,46.0,-100.00,NNE,12,1.0,4.0,52,-99.99,,,-99.99,,2013-07-18 06:52:00,
2013-07-18 01:01:00,62.0,46.0,-100.00,ESE,115,1.0,2.0,55,-99.99,,,-99.99,,2013-07-18 07:01:00,
2013-07-18 01:22:00,63.0,45.0,-100.00,SE,142,2.0,3.0,51,-99.99,,,-99.99,,2013-07-18 07:22:00,
2013-07-18 01:32:00,63.0,45.0,-100.00,SE,142,2.0,3.0,51,-99.99,,,-99.99,,2013-07-18 07:32:00,
2013-07-18 01:42:00,63.0,45.0,-100.00,SE,142,2.0,3.0,51,-99.99,,,-99.99,,2013-07-18 07:42:00,
2013-07-18 04:52:00,59.0,46.0,-100.00,West,264,1.0,3.0,61,-99.99,,,-99.99,,2013-07-18 10:52:00,
2013-07-18 05:01:00,58.0,47.0,-100.00,SW,235,3.0,5.0,66,-99.99,,,-99.99,,2013-07-18 11:01:00,
2013-07-18 05:22:00,58.0,46.0,-100.00,SW,232,3.0,6.0,64,-99.99,,,-99.99,,2013-07-18 11:22:00,
2013-07-18 05:32:00,58.0,46.0,-100.00,SW,232,3.0,6.0,64,-99.99,,,-99.99,,2013-07-18 11:32:00,
2013-07-18 05:43:00,58.0,46.0,-100.00,SW,232,3.0,6.0,64,-99.99,,,-99.99,,2013-07-18 11:43:00,
2013-07-18 06:32:00,60.0,45.0,-100.00,South,177,1.0,4.0,57,-99.99,,,-99.99,,2013-07-18 12:32:00,
2013-07-18 06:42:00,61.0,43.0,-100.00,SW,215,2.0,4.0,51,-99.99,,,-99.99,,2013-07-18 12:42:00,
2013-07-18 06:52:00,61.0,43.0,-100.00,SW,215,2.0,4.0,51,-99.99,,,-99.99,,2013-07-18 12:52:00,
2013-07-18 07:01:00,63.0,43.0,-100.00,South,189,1.0,2.0,48,-99.99,,,-99.99,,2013-07-18 13:01:00,
2013-07-18 07:11:00,63.0,43.0,-100.00,South,189,1.0,2.0,48,-99.99,,,-99.99,,2013-07-18 13:11:00,
2013-07-18 07:22:00,63.0,43.0,-100.00,SE,131,3.0,3.0,47,-99.99,,,-99.99,,2013-07-18 13:22:00,
2013-07-18 07:32:00,63.0,43.0,-100.00,SE,131,3.0,3.0,47,-99.99,,,-99.99,,2013-07-18 13:32:00,
2013-07-18 07:53:00,63.0,45.0,-100.00,ENE,76,1.0,2.0,50,-99.99,,,-99.99,,2013-07-18 13:53:00,
2013-07-18 08:22:00,66.0,46.0,-100.00,NE,35,1.0,2.0,49,-99.99,,,-99.99,,2013-07-18 14:22:00,
2013-07-18 08:32:00,66.0,46.0,-100.00,NE,35,1.0,2.0,49,-99.99,,,-99.99,,2013-07-18 14:32:00,
2013-07-18 09:11:00,64.0,52.0,-100.00,ENE,63,2.0,4.0,64,-99.99,,,-99.99,,2013-07-18 15:11:00,
2013-07-18 09:53:00,67.0,53.0,-100.00,ENE,68,5.0,8.0,61,-99.99,,,-99.99,,2013-07-18 15:53:00,
2013-07-18 10:01:00,67.0,52.0,-100.00,ENE,64,5.0,7.0,58,-99.99,,,-99.99,,2013-07-18 16:01:00,
2013-07-18 10:11:00,67.0,52.0,-100.00,ENE,64,5.0,7.0,58,-99.99,,,-99.99,,2013-07-18 16:11:00,
2013-07-18 10:22:00,66.0,51.0,-100.00,ENE,71,4.0,7.0,57,-99.99,,,-99.99,,2013-07-18 16:22:00,
2013-07-18 10:32:00,66.0,51.0,-100.00,ENE,71,4.0,7.0,57,-99.99,,,-99.99,,2013-07-18 16:32:00,
2013-07-18 10:42:00,65.0,51.0,-100.00,NE,55,4.0,8.0,60,-99.99,,,-99.99,,2013-07-18 16:42:00,
2013-07-18 10:52:00,65.0,51.0,-100.00,NE,55,4.0,8.0,60,-99.99,,,-99.99,,2013-07-18 16:52:00,
2013-07-18 11:02:00,66.0,52.0,-100.00,NE,47,3.0,7.0,61,-99.99,,,-99.99,,2013-07-18 17:02:00,
2013-07-18 11:11:00,66.0,52.0,-100.00,NE,47,3.0,7.0,61,-99.99,,,-99.99,,2013-07-18 17:11:00,
2013-07-18 11:22:00,67.0,53.0,-100.00,NE,52,4.0,7.0,61,-99.99,,,-99.99,,2013-07-18 17:22:00,
2013-07-18 11:33:00,67.0,53.0,-100.00,NE,52,4.0,7.0,61,-99.99,,,-99.99,,2013-07-18 17:33:00,
2013-07-18 11:43:00,69.0,55.0,-100.00,NE,39,4.0,7.0,59,-99.99,,,-99.99,,2013-07-18 17:43:00,
2013-07-18 11:52:00,69.0,55.0,-100.00,NE,39,4.0,7.0,59,-99.99,,,-99.99,,2013-07-18 17:52:00,
2013-07-18 12:22:00,71.0,52.0,-100.00,NE,36,4.0,8.0,50,-99.99,,,-99.99,,2013-07-18 18:22:00,
2013-07-18 12:32:00,71.0,52.0,-100.00,NE,36,4.0,8.0,50,-99.99,,,-99.99,,2013-07-18 18:32:00,
2013-07-18 12:43:00,72.0,47.0,-100.00,NE,41,3.0,7.0,41,-99.99,,,-99.99,,2013-07-18 18:43:00,
2013-07-18 12:52:00,72.0,47.0,-100.00,NE,41,3.0,7.0,41,-99.99,,,-99.99,,2013-07-18 18:52:00,
2013-07-18 13:01:00,72.0,46.0,-100.00,ENE,59,2.0,8.0,38,-99.99,,,-99.99,,2013-07-18 19:01:00,
2013-07-18 13:11:00,72.0,46.0,-100.00,ENE,59,2.0,8.0,38,-99.99,,,-99.99,,2013-07-18 19:11:00,
2013-07-18 13:22:00,73.0,47.0,-100.00,ESE,107,4.0,8.0,40,-99.99,,,-99.99,,2013-07-18 19:22:00,
2013-07-18 13:32:00,73.0,47.0,-100.00,ESE,107,4.0,8.0,40,-99.99,,,-99.99,,2013-07-18 19:32:00,
2013-07-18 13:43:00,73.0,47.0,-100.00,ESE,107,4.0,8.0,40,-99.99,,,-99.99,,2013-07-18 19:43:00,
2013-07-18 13:53:00,72.0,46.0,-100.00,NNW,327,3.0,8.0,38,-99.99,,,-99.99,,2013-07-18 19:53:00,
2013-07-18 14:01:00,72.0,44.0,-100.00,NNW,338,2.0,9.0,36,-99.99,,,-99.99,,2013-07-18 20:01:00,
2013-07-18 14:11:00,72.0,44.0,-100.00,NNW,338,2.0,9.0,36,-99.99,,,-99.99,,2013-07-18 20:11:00,
2013-07-18 14:21:00,74.0,42.0,-100.00,WNW,287,4.0,10.0,31,-99.99,,,-99.99,,2013-07-18 20:21:00,
2013-07-18 14:31:00,74.0,42.0,-100.00,WNW,287,4.0,10.0,31,-99.99,,,-99.99,,2013-07-18 20:31:00,
2013-07-18 14:43:00,80.0,43.0,-100.00,NW,315,6.0,13.0,27,-99.99,,,-99.99,,2013-07-18 20:43:00,
2013-07-18 14:52:00,80.0,43.0,-100.00,NW,315,6.0,13.0,27,-99.99,,,-99.99,,2013-07-18 20:52:00,
2013-07-18 15:01:00,80.0,40.0,-100.00,WNW,298,3.0,10.0,24,-99.99,,,-99.99,,2013-07-18 21:01:00,
2013-07-18 15:22:00,79.0,40.0,-100.00,WNW,303,5.0,12.0,24,-99.99,,,-99.99,,2013-07-18 21:22:00,
2013-07-18 15:32:00,79.0,40.0,-100.00,WNW,303,5.0,12.0,24,-99.99,,,-99.99,,2013-07-18 21:32:00,
2013-07-18 16:01:00,80.0,40.0,-100.00,WNW,295,3.0,12.0,23,-99.99,,,-99.99,,2013-07-18 22:01:00,
2013-07-18 16:11:00,80.0,40.0,-100.00,WNW,295,3.0,12.0,23,-99.99,,,-99.99,,2013-07-18 22:11:00,
2013-07-18 16:22:00,81.0,40.0,-100.00,NW,304,4.0,12.0,23,-99.99,,,-99.99,,2013-07-18 22:22:00,
2013-07-18 16:32:00,81.0,40.0,-100.00,NW,304,4.0,12.0,23,-99.99,,,-99.99,,2013-07-18 22:32:00,
2013-07-18 16:42:00,80.0,38.0,-100.00,NW,308,4.0,14.0,22,-99.99,,,-99.99,,2013-07-18 22:42:00,
2013-07-18 16:53:00,80.0,38.0,-100.00,NW,308,4.0,14.0,22,-99.99,,,-99.99,,2013-07-18 22:53:00,
2013-07-18 17:02:00,81.0,39.0,-100.00,WNW,289,4.0,10.0,22,-99.99,,,-99.99,,2013-07-18 23:02:00,
2013-07-18 17:22:00,81.0,41.0,-100.00,NW,312,4.0,9.0,24,-99.99,,,-99.99,,2013-07-18 23:22:00,
2013-07-18 17:32:00,81.0,41.0,-100.00,NW,312,4.0,9.0,24,-99.99,,,-99.99,,2013-07-18 23:32:00,
2013-07-18 17:42:00,78.0,43.0,-100.00,NNW,341,5.0,10.0,28,-99.99,,,-99.99,,2013-07-18 23:42:00,
2013-07-18 17:52:00,78.0,43.0,-100.00,NNW,341,5.0,10.0,28,-99.99,,,-99.99,,2013-07-18 23:52:00,
2013-07-18 18:11:00,77.0,42.0,-100.00,NW,314,3.0,7.0,28,-99.99,,,-99.99,,2013-07-19 00:11:00,
2013-07-18 18:22:00,76.0,42.0,-100.00,WNW,291,4.0,9.0,29,-99.99,,,-99.99,,2013-07-19 00:22:00,
2013-07-18 18:32:00,76.0,42.0,-100.00,WNW,291,4.0,9.0,29,-99.99,,,-99.99,,2013-07-19 00:32:00,
2013-07-18 18:42:00,74.0,43.0,-100.00,West,261,5.0,7.0,32,-99.99,,,-99.99,,2013-07-19 00:42:00,
2013-07-18 18:52:00,74.0,43.0,-100.00,West,261,5.0,7.0,32,-99.99,,,-99.99,,2013-07-19 00:52:00,
2013-07-18 19:11:00,74.0,43.0,-100.00,WSW,253,6.0,8.0,32,-99.99,,,-99.99,,2013-07-19 01:11:00,
2013-07-18 19:21:00,74.0,42.0,-100.00,West,271,3.0,7.0,32,-99.99,,,-99.99,,2013-07-19 01:21:00,
2013-07-18 19:32:00,74.0,42.0,-100.00,West,271,3.0,7.0,32,-99.99,,,-99.99,,2013-07-19 01:32:00,
2013-07-18 19:42:00,72.0,44.0,-100.00,WSW,248,6.0,15.0,36,-99.99,,,-99.99,,2013-07-19 01:42:00,
2013-07-18 19:52:00,72.0,44.0,-100.00,WSW,248,6.0,15.0,36,-99.99,,,-99.99,,2013-07-19 01:52:00,
2013-07-18 20:01:00,73.0,39.0,-100.00,WSW,245,7.0,13.0,29,-99.99,,,-99.99,,2013-07-19 02:01:00,
2013-07-18 20:11:00,73.0,39.0,-100.00,WSW,245,7.0,13.0,29,-99.99,,,-99.99,,2013-07-19 02:11:00,
2013-07-18 20:22:00,75.0,37.0,-100.00,WSW,254,5.0,8.0,25,-99.99,,,-99.99,,2013-07-19 02:22:00,
2013-07-18 20:32:00,75.0,37.0,-100.00,WSW,254,5.0,8.0,25,-99.99,,,-99.99,,2013-07-19 02:32:00,
2013-07-18 20:52:00,74.0,39.0,-100.00,WSW,238,6.0,10.0,28,-99.99,,,-99.99,,2013-07-19 02:52:00,
2013-07-18 21:11:00,71.0,39.0,-100.00,WSW,252,6.0,12.0,31,-99.99,,,-99.99,,2013-07-19 03:11:00,
2013-07-18 21:22:00,70.0,41.0,-100.00,WSW,251,7.0,11.0,34,-99.99,,,-99.99,,2013-07-19 03:22:00,
2013-07-18 21:32:00,70.0,41.0,-100.00,WSW,251,7.0,11.0,34,-99.99,,,-99.99,,2013-07-19 03:32:00,
2013-07-18 21:42:00,70.0,41.0,-100.00,WSW,251,7.0,11.0,34,-99.99,,,-99.99,,2013-07-19 03:42:00,
2013-07-18 21:52:00,70.0,41.0,-100.00,WSW,253,7.0,11.0,35,-99.99,,,-99.99,,2013-07-19 03:52:00,
2013-07-18 22:02:00,70.0,41.0,-100.00,West,262,5.0,11.0,35,-99.99,,,-99.99,,2013-07-19 04:02:00,
2013-07-18 22:11:00,70.0,41.0,-100.00,West,262,5.0,11.0,35,-99.99,,,-99.99,,2013-07-19 04:11:00,
2013-07-18 22:22:00,70.0,40.0,-100.00,WSW,256,5.0,11.0,34,-99.99,,,-99.99,,2013-07-19 04:22:00,
2013-07-18 22:32:00,70.0,40.0,-100.00,WSW,256,5.0,11.0,34,-99.99,,,-99.99,,2013-07-19 04:32:00,
2013-07-18 22:43:00,70.0,39.0,-100.00,West,261,6.0,11.0,32,-99.99,,,-99.99,,2013-07-19 04:43:00,
2013-07-18 22:52:00,70.0,39.0,-100.00,West,261,6.0,11.0,32,-99.99,,,-99.99,,2013-07-19 04:52:00,
2013-07-18 23:02:00,70.0,38.0,-100.00,West,262,7.0,10.0,31,-99.99,,,-99.99,,2013-07-19 05:02:00,
2013-07-18 23:11:00,70.0,38.0,-100.00,West,262,7.0,10.0,31,-99.99,,,-99.99,,2013-07-19 05:11:00,
2013-07-18 23:22:00,70.0,38.0,-100.00,West,266,6.0,10.0,30,-99.99,,,-99.99,,2013-07-19 05:22:00,
2013-07-18 23:32:00,70.0,38.0,-100.00,West,266,6.0,10.0,30,-99.99,,,-99.99,,2013-07-19 05:32:00,
2013-07-18 23:53:00,70.0,38.0,-100.00,WSW,252,5.0,7.0,30,-99.99,,,-99.99,,2013-07-19 05:53:00,